Arma, Kansas
Current Conditions -  °F | °C
As of 11:15 AM on Wednesday 26 Nov 2014 (Local Time) from KPTS Reporting Station
Scattered Clouds Scattered Clouds  
Wind Chill: 50°   Ceiling: Unl
Heat Index: 50°   Visibility: 10mi
Dew Point: 33°   Wind: 16mph
Humidity: 52%   Direction: 330°NNW
Pressure: 30.04"   Gusts: 25mph
Location:  37.54°N, 94.7°W
Report Text: KPTS 261715Z AUTO 33014G22KT 10SM SCT043 SCT050 SCT070 10/01 A3004 RMK AO2 T01010006
Loading
Personal Weather Stations






























Interactive Weather Map New forecast layout! Learn more

10-Day Weather Forecast

Advertisements
Track Severe Weather on mobile